createdAt,value
2023-04-05T00:00:01.076Z,4.93
2023-04-05T00:02:29.837Z,5.60
2023-04-05T00:04:58.266Z,5.72
2023-04-05T00:07:26.502Z,5.25
2023-04-05T00:09:53.869Z,5.40
2023-04-05T00:12:21.096Z,5.00
2023-04-05T00:14:48.435Z,5.28
2023-04-05T00:17:15.471Z,5.18
2023-04-05T00:19:43.274Z,5.30
2023-04-05T00:22:10.649Z,5.15
2023-04-05T00:24:42.043Z,5.13
2023-04-05T00:27:09.145Z,5.10
2023-04-05T00:29:36.373Z,4.85
2023-04-05T00:32:04.797Z,5.13
2023-04-05T00:34:33.608Z,4.70
2023-04-05T00:37:00.826Z,4.78
2023-04-05T00:39:27.867Z,5.43
2023-04-05T00:41:56.058Z,4.90
2023-04-05T00:44:23.072Z,4.80
2023-04-05T00:46:50.048Z,5.25
2023-04-05T00:49:17.911Z,5.55
2023-04-05T00:51:45.859Z,3.85
2023-04-05T00:54:14.027Z,4.50
2023-04-05T00:56:41.629Z,3.90
2023-04-05T00:59:08.898Z,4.20
2023-04-05T01:01:40.324Z,4.65
2023-04-05T01:04:11.525Z,5.03
2023-04-05T01:07:05.148Z,4.60
2023-04-05T01:09:35.134Z,4.47
2023-04-05T01:12:09.155Z,4.65
2023-04-05T01:14:53.034Z,4.43
2023-04-05T01:17:22.749Z,4.25
2023-04-05T01:19:59.437Z,4.18
2023-04-05T01:22:40.414Z,4.32
2023-04-05T01:25:30.788Z,4.13
2023-04-05T01:28:35.766Z,3.83
2023-04-05T01:31:32.322Z,3.97
2023-04-05T01:34:07.221Z,4.38
2023-04-05T01:36:43.605Z,4.05
2023-04-05T01:39:14.856Z,4.93
2023-04-05T01:41:41.922Z,4.25
2023-04-05T01:44:09.078Z,3.90
2023-04-05T01:46:36.618Z,4.13
2023-04-05T01:49:05.697Z,4.22
2023-04-05T01:51:33.313Z,4.28
2023-04-05T01:54:00.662Z,4.15
2023-04-05T01:56:27.592Z,3.88
2023-04-05T01:58:54.613Z,4.40
2023-04-05T02:01:21.638Z,4.10
2023-04-05T02:03:48.790Z,3.80
2023-04-05T02:06:16.380Z,3.83
2023-04-05T02:08:43.441Z,3.78
2023-04-05T02:11:11.590Z,4.18
2023-04-05T02:13:40.032Z,4.55
2023-04-05T02:16:06.939Z,4.10
2023-04-05T02:18:33.962Z,4.63
2023-04-05T02:21:08.595Z,4.07
2023-04-05T02:23:37.916Z,4.65
2023-04-05T02:26:05.476Z,4.05
2023-04-05T02:28:32.413Z,3.97
2023-04-05T02:30:59.431Z,3.92
2023-04-05T02:33:27.665Z,3.55
2023-04-05T02:35:54.713Z,4.25
2023-04-05T02:38:21.928Z,4.63
2023-04-05T02:40:52.107Z,4.10
2023-04-05T02:43:19.065Z,4.35
2023-04-05T02:45:47.058Z,4.53
2023-04-05T02:48:14.980Z,4.18
2023-04-05T02:50:42.680Z,3.92
2023-04-05T02:53:10.013Z,4.90
2023-04-05T02:55:37.164Z,4.05
2023-04-05T02:58:04.129Z,4.43
2023-04-05T03:00:40.830Z,4.38
2023-04-05T03:03:09.554Z,4.28
2023-04-05T03:05:42.298Z,4.40
2023-04-05T03:08:18.647Z,4.45
2023-04-05T03:10:54.063Z,4.38
2023-04-05T03:13:21.120Z,5.22
2023-04-05T03:15:48.707Z,3.83
2023-04-05T03:18:18.308Z,4.65
2023-04-05T03:20:49.909Z,4.45
2023-04-05T03:23:20.996Z,4.72
2023-04-05T03:25:55.153Z,4.53
2023-04-05T03:28:25.681Z,5.13
2023-04-05T03:30:56.388Z,4.65
2023-04-05T03:33:23.488Z,4.72
2023-04-05T03:35:53.837Z,4.25
2023-04-05T03:38:21.707Z,4.72
2023-04-05T03:41:08.521Z,4.65
2023-04-05T03:43:36.473Z,4.43
2023-04-05T03:46:03.589Z,5.15
2023-04-05T03:48:30.822Z,4.55
2023-04-05T03:50:57.774Z,5.10
2023-04-05T03:53:24.825Z,5.05
2023-04-05T03:55:55.833Z,5.38
2023-04-05T03:58:42.038Z,4.88
2023-04-05T04:01:10.740Z,5.05
2023-04-05T04:03:38.196Z,4.40
2023-04-05T04:06:06.779Z,5.47
2023-04-05T04:08:34.188Z,4.90
2023-04-05T04:11:01.519Z,4.93
2023-04-05T04:13:32.657Z,4.97
2023-04-05T04:16:14.202Z,5.47
2023-04-05T04:19:04.208Z,4.75
2023-04-05T04:21:51.138Z,5.38
2023-04-05T04:24:32.721Z,5.10
2023-04-05T04:27:32.484Z,4.72
2023-04-05T04:30:18.304Z,5.00
2023-04-05T04:33:07.389Z,5.47
2023-04-05T04:35:46.817Z,6.18
2023-04-05T04:38:34.979Z,5.57
2023-04-05T04:41:29.356Z,4.97
2023-04-05T04:44:31.399Z,5.95
2023-04-05T04:47:23.069Z,6.15
2023-04-05T04:50:20.379Z,6.35
2023-04-05T04:52:48.332Z,6.30
2023-04-05T04:55:15.370Z,6.40
2023-04-05T04:57:46.021Z,6.53
2023-04-05T05:00:15.410Z,6.82
2023-04-05T05:02:44.180Z,6.65
2023-04-05T05:05:14.590Z,6.07
2023-04-05T05:07:42.408Z,6.70
2023-04-05T05:10:11.442Z,6.88
2023-04-05T05:12:41.125Z,6.65
2023-04-05T05:15:12.238Z,6.38
2023-04-05T05:17:39.679Z,6.70
2023-04-05T05:20:11.253Z,7.60
2023-04-05T05:22:42.491Z,6.88
2023-04-05T05:25:12.396Z,6.90
2023-04-05T05:27:39.681Z,7.07
2023-04-05T05:30:07.144Z,6.78
2023-04-05T05:32:34.178Z,6.88
2023-04-05T05:35:01.091Z,7.05
2023-04-05T05:37:32.317Z,6.88
2023-04-05T05:39:59.883Z,6.45
2023-04-05T05:42:27.406Z,6.78
2023-04-05T05:44:54.498Z,7.63
2023-04-05T05:47:21.837Z,7.68
2023-04-05T05:49:49.700Z,6.90
2023-04-05T05:52:16.966Z,8.15
2023-04-05T05:54:43.911Z,7.95
2023-04-05T05:57:10.889Z,7.13
2023-04-05T05:59:37.821Z,7.10
2023-04-05T06:02:04.740Z,7.25
2023-04-05T06:04:31.873Z,7.72
2023-04-05T06:06:59.103Z,6.15
2023-04-05T06:09:26.423Z,7.72
2023-04-05T06:11:57.018Z,7.57
2023-04-05T06:14:25.587Z,7.15
2023-04-05T06:16:52.845Z,8.13
2023-04-05T06:19:19.844Z,6.78
2023-04-05T06:21:46.972Z,7.35
2023-04-05T06:24:13.948Z,7.43
2023-04-05T06:26:41.325Z,7.80
2023-04-05T06:29:08.294Z,7.38
2023-04-05T06:31:36.710Z,7.10
2023-04-05T06:34:03.851Z,7.07
2023-04-05T06:36:34.578Z,8.00
2023-04-05T06:39:01.954Z,6.70
2023-04-05T06:41:28.873Z,7.97
2023-04-05T06:43:56.593Z,7.68
2023-04-05T06:46:24.743Z,8.02
2023-04-05T06:48:52.704Z,7.85
2023-04-05T06:51:20.122Z,7.95
2023-04-05T06:53:47.611Z,8.02
2023-04-05T06:56:14.519Z,8.40
2023-04-05T06:58:41.831Z,7.38
2023-04-05T07:01:08.986Z,6.88
2023-04-05T07:03:36.203Z,8.50
2023-04-05T07:06:04.397Z,8.05
2023-04-05T07:08:32.999Z,7.93
2023-04-05T07:10:59.901Z,9.18
2023-04-05T07:13:26.989Z,9.07
2023-04-05T07:16:01.431Z,8.13
2023-04-05T07:18:29.917Z,8.32
2023-04-05T07:21:00.892Z,8.15
2023-04-05T07:23:28.711Z,10.18
2023-04-05T07:26:00.499Z,8.98
2023-04-05T07:28:27.646Z,9.02
2023-04-05T07:30:54.600Z,9.30
2023-04-05T07:33:21.521Z,8.55
2023-04-05T07:35:56.673Z,8.18
2023-04-05T07:38:23.948Z,8.73
2023-04-05T07:40:51.469Z,8.07
2023-04-05T07:43:19.413Z,8.05
2023-04-05T07:45:46.437Z,7.93
2023-04-05T07:48:13.419Z,7.00
2023-04-05T07:50:42.427Z,6.95
2023-04-05T07:53:09.723Z,6.93
2023-04-05T07:55:38.308Z,6.60
2023-04-05T07:58:05.326Z,7.03
2023-04-05T08:00:32.348Z,8.70
2023-04-05T08:03:02.165Z,6.70
2023-04-05T08:05:29.706Z,6.25
2023-04-05T08:07:58.291Z,6.82
2023-04-05T08:10:25.735Z,6.18
2023-04-05T08:12:53.282Z,5.88
2023-04-05T08:15:20.232Z,6.82
2023-04-05T08:17:47.315Z,6.40
2023-04-05T08:20:14.280Z,6.15
2023-04-05T08:22:41.501Z,6.47
2023-04-05T08:25:09.318Z,5.82
2023-04-05T08:27:36.361Z,6.60
2023-04-05T08:30:04.189Z,7.30
2023-04-05T08:32:32.073Z,6.32
2023-04-05T08:34:59.067Z,6.10
2023-04-05T08:37:26.166Z,6.80
2023-04-05T08:39:53.196Z,6.43
2023-04-05T08:42:30.403Z,6.50
2023-04-05T08:44:59.863Z,6.85
2023-04-05T08:47:27.748Z,6.50
2023-04-05T08:49:54.816Z,6.30
2023-04-05T08:52:21.742Z,6.68
2023-04-05T08:54:50.731Z,6.68
2023-04-05T08:57:19.344Z,6.38
2023-04-05T08:59:46.873Z,6.07
2023-04-05T09:02:19.758Z,5.57
2023-04-05T09:04:48.603Z,5.80
2023-04-05T09:07:15.925Z,6.30
2023-04-05T09:09:47.445Z,5.72
2023-04-05T09:12:14.773Z,5.68
2023-04-05T09:14:42.997Z,6.45
2023-04-05T09:17:10.620Z,5.97
2023-04-05T09:19:38.041Z,7.13
2023-04-05T09:22:07.442Z,7.35
2023-04-05T09:24:47.014Z,5.82
2023-04-05T09:27:18.812Z,5.88
2023-04-05T09:29:51.114Z,5.93
2023-04-05T09:32:21.233Z,6.00
2023-04-05T09:34:48.700Z,5.28
2023-04-05T09:37:22.134Z,7.05
2023-04-05T09:39:51.683Z,5.97
2023-04-05T09:42:22.831Z,6.03
2023-04-05T09:45:05.254Z,6.32
2023-04-05T09:47:42.159Z,5.38
2023-04-05T09:50:15.753Z,5.43
2023-04-05T09:52:44.077Z,5.95
2023-04-05T09:55:11.692Z,5.20
2023-04-05T09:57:40.422Z,5.78
2023-04-05T10:00:18.933Z,5.20
2023-04-05T10:02:47.688Z,5.25
2023-04-05T10:05:15.840Z,6.05
2023-04-05T10:07:43.726Z,5.40
2023-04-05T10:10:12.887Z,5.32
2023-04-05T10:12:41.891Z,5.45
2023-04-05T10:15:10.662Z,5.68
2023-04-05T10:17:39.894Z,4.75
2023-04-05T10:20:17.210Z,4.45
2023-04-05T10:23:05.487Z,3.50
2023-04-05T10:25:47.738Z,5.40
2023-04-05T10:28:21.473Z,5.30
2023-04-05T10:30:53.074Z,7.18
2023-04-05T10:34:05.867Z,5.25
2023-04-05T10:36:58.478Z,6.20
2023-04-05T10:39:35.075Z,6.03
2023-04-05T10:42:11.657Z,5.80
2023-04-05T10:44:41.116Z,8.80
2023-04-05T10:47:14.004Z,6.47
2023-04-05T10:49:44.752Z,5.15
2023-04-05T10:52:11.945Z,6.45
2023-04-05T10:54:39.077Z,4.80
2023-04-05T10:57:10.179Z,6.65
2023-04-05T10:59:44.456Z,5.05
2023-04-05T11:02:12.335Z,5.50
2023-04-05T11:04:42.274Z,5.85
2023-04-05T11:07:17.642Z,7.07
2023-04-05T11:10:00.796Z,6.28
2023-04-05T11:12:47.045Z,3.17
2023-04-05T11:15:28.864Z,5.05
2023-04-05T11:18:06.272Z,6.15
2023-04-05T11:20:47.623Z,5.93
2023-04-05T11:23:17.311Z,5.43
2023-04-05T11:26:07.653Z,5.90
2023-04-05T11:28:42.281Z,6.07
2023-04-05T11:31:18.026Z,6.95
2023-04-05T11:33:47.670Z,6.22
2023-04-05T11:36:39.024Z,5.57
2023-04-05T11:39:23.449Z,5.20
2023-04-05T11:42:03.627Z,5.93
2023-04-05T11:44:48.309Z,5.93
2023-04-05T11:47:21.905Z,7.28
2023-04-05T11:49:52.054Z,6.35
2023-04-05T11:52:20.831Z,6.75
2023-04-05T11:54:49.221Z,7.07
2023-04-05T11:57:21.108Z,5.85
2023-04-05T11:59:53.670Z,6.93
2023-04-05T12:02:22.436Z,3.30
2023-04-05T12:04:59.806Z,5.82
2023-04-05T12:07:29.574Z,3.88
2023-04-05T12:10:03.689Z,5.10
2023-04-05T12:12:35.499Z,7.10
2023-04-05T12:15:04.160Z,6.60
2023-04-05T12:18:00.759Z,6.32
2023-04-05T12:20:28.608Z,4.72
2023-04-05T12:22:56.886Z,6.28
2023-04-05T12:25:24.910Z,6.00
2023-04-05T12:27:51.982Z,5.75
2023-04-05T12:30:22.025Z,7.10
2023-04-05T12:32:54.143Z,5.65
2023-04-05T12:35:24.600Z,6.18
2023-04-05T12:37:52.201Z,3.90
2023-04-05T12:40:23.457Z,6.13
2023-04-05T12:42:50.879Z,5.00
2023-04-05T12:45:18.604Z,7.50
2023-04-05T12:48:00.374Z,7.80
2023-04-05T12:50:31.709Z,3.90
2023-04-05T12:53:01.041Z,5.93
2023-04-05T12:55:29.591Z,5.88
2023-04-05T12:58:01.483Z,9.45
2023-04-05T13:00:31.019Z,8.98
2023-04-05T13:02:59.566Z,7.80
2023-04-05T13:05:29.070Z,9.85
2023-04-05T13:07:56.257Z,3.38
2023-04-05T13:10:24.890Z,5.32
2023-04-05T13:12:52.313Z,7.57
2023-04-05T13:15:19.853Z,7.72
2023-04-05T13:17:50.195Z,5.45
2023-04-05T13:20:18.175Z,8.23
2023-04-05T13:22:46.255Z,7.68
2023-04-05T13:25:14.825Z,6.38
2023-04-05T13:27:42.091Z,4.85
2023-04-05T13:30:09.916Z,6.47
2023-04-05T13:32:37.005Z,6.90
2023-04-05T13:35:05.698Z,8.00
2023-04-05T13:37:32.700Z,6.90
2023-04-05T13:39:59.683Z,10.32
2023-04-05T13:42:26.730Z,8.18
2023-04-05T13:44:53.741Z,6.25
2023-04-05T13:47:20.736Z,9.80
2023-04-05T13:49:47.680Z,6.38
2023-04-05T13:52:14.733Z,9.90
2023-04-05T13:54:41.950Z,4.55
2023-04-05T13:57:09.639Z,8.15
2023-04-05T13:59:36.754Z,9.20
2023-04-05T14:02:04.435Z,8.15
2023-04-05T14:04:31.606Z,8.15
2023-04-05T14:06:58.535Z,7.05
2023-04-05T14:09:25.652Z,6.60
2023-04-05T14:11:52.777Z,11.13
2023-04-05T14:14:19.689Z,6.40
2023-04-05T14:16:47.082Z,5.38
2023-04-05T14:19:14.144Z,9.02
2023-04-05T14:21:43.101Z,10.00
2023-04-05T14:24:10.161Z,8.70
2023-04-05T14:26:37.692Z,4.57
2023-04-05T14:29:05.224Z,7.40
2023-04-05T14:31:32.232Z,8.45
2023-04-05T14:33:59.772Z,6.18
2023-04-05T14:36:26.957Z,8.63
2023-04-05T14:38:53.904Z,9.98
2023-04-05T14:41:20.979Z,9.50
2023-04-05T14:43:48.077Z,6.93
2023-04-05T14:46:15.297Z,5.07
2023-04-05T14:48:42.520Z,4.13
2023-04-05T14:51:09.709Z,10.75
2023-04-05T14:53:37.332Z,7.55
2023-04-05T14:56:04.715Z,5.75
2023-04-05T14:58:34.019Z,4.30
2023-04-05T15:01:01.128Z,9.93
2023-04-05T15:03:29.160Z,9.23
2023-04-05T15:05:58.169Z,5.60
2023-04-05T15:08:25.161Z,7.15
2023-04-05T15:10:52.234Z,9.63
2023-04-05T15:13:20.859Z,7.57
2023-04-05T15:15:47.824Z,5.28
2023-04-05T15:18:14.879Z,5.35
2023-04-05T15:20:41.873Z,8.15
2023-04-05T15:23:08.872Z,4.78
2023-04-05T15:25:36.032Z,5.80
2023-04-05T15:28:06.699Z,5.10
2023-04-05T15:30:34.092Z,6.80
2023-04-05T15:33:01.553Z,4.68
2023-04-05T15:35:28.652Z,9.32
2023-04-05T15:37:55.601Z,7.22
2023-04-05T15:40:22.762Z,8.30
2023-04-05T15:42:49.743Z,3.97
2023-04-05T15:45:16.834Z,7.03
2023-04-05T15:47:44.105Z,8.05
2023-04-05T15:50:11.316Z,6.45
2023-04-05T15:52:38.443Z,8.63
2023-04-05T15:55:06.502Z,9.05
2023-04-05T15:57:33.449Z,6.60
2023-04-05T16:00:00.410Z,8.30
2023-04-05T16:02:27.503Z,6.68
2023-04-05T16:04:54.489Z,8.52
2023-04-05T16:07:21.887Z,9.55
2023-04-05T16:09:48.891Z,8.07
2023-04-05T16:12:16.202Z,6.53
2023-04-05T16:14:43.232Z,9.52
2023-04-05T16:17:10.422Z,8.43
2023-04-05T16:19:37.777Z,8.55
2023-04-05T16:22:04.810Z,4.15
2023-04-05T16:24:33.249Z,9.50
2023-04-05T16:27:00.368Z,6.45
2023-04-05T16:29:27.414Z,7.68
2023-04-05T16:31:54.615Z,8.70
2023-04-05T16:34:22.065Z,5.60
2023-04-05T16:36:49.366Z,7.38
2023-04-05T16:39:16.508Z,7.93
2023-04-05T16:41:43.840Z,8.80
2023-04-05T16:44:10.839Z,8.57
2023-04-05T16:46:38.136Z,6.90
2023-04-05T16:49:05.222Z,9.77
2023-04-05T16:51:34.628Z,8.80
2023-04-05T16:54:01.752Z,7.72
2023-04-05T16:56:28.814Z,6.85
2023-04-05T16:58:57.430Z,8.02
2023-04-05T17:01:24.817Z,9.27
2023-04-05T17:03:51.928Z,8.02
2023-04-05T17:06:18.957Z,6.95
2023-04-05T17:08:45.952Z,8.73
2023-04-05T17:11:12.986Z,7.80
2023-04-05T17:13:41.886Z,9.20
2023-04-05T17:16:09.125Z,8.63
2023-04-05T17:18:36.217Z,9.02
2023-04-05T17:21:03.291Z,4.18
2023-04-05T17:23:30.290Z,8.80
2023-04-05T17:25:57.201Z,8.23
2023-04-05T17:28:24.295Z,6.13
2023-04-05T17:30:51.298Z,9.57
2023-04-05T17:33:18.246Z,9.20
2023-04-05T17:35:45.197Z,8.95
2023-04-05T17:38:12.222Z,8.95
2023-04-05T17:40:40.203Z,7.25
2023-04-05T17:43:07.274Z,7.68
2023-04-05T17:45:34.269Z,7.80
2023-04-05T17:48:02.782Z,9.48
2023-04-05T17:50:30.077Z,10.60
2023-04-05T17:52:57.994Z,10.35
2023-04-05T17:55:25.790Z,10.48
2023-04-05T17:57:52.793Z,10.98
2023-04-05T18:00:19.883Z,12.63
2023-04-05T18:02:47.133Z,17.77
2023-04-05T18:05:14.284Z,14.55
2023-04-05T18:07:42.808Z,15.35
2023-04-05T18:10:10.360Z,13.07
2023-04-05T18:12:37.491Z,11.07
2023-04-05T18:15:04.759Z,10.02
2023-04-05T18:17:31.837Z,9.80
2023-04-05T18:19:58.955Z,10.93
2023-04-05T18:22:26.435Z,9.38
2023-04-05T18:24:53.554Z,8.40
2023-04-05T18:27:20.750Z,8.18
2023-04-05T18:29:48.719Z,9.25
2023-04-05T18:32:16.374Z,8.98
2023-04-05T18:34:43.855Z,10.00
2023-04-05T18:37:10.946Z,9.48
2023-04-05T18:39:40.871Z,9.80
2023-04-05T18:42:08.329Z,9.45
2023-04-05T18:44:35.355Z,8.48
2023-04-05T18:47:02.891Z,9.27
2023-04-05T18:49:29.924Z,9.35
2023-04-05T18:51:56.842Z,9.57
2023-04-05T18:54:24.325Z,9.65
2023-04-05T18:56:51.366Z,8.98
2023-04-05T18:59:20.705Z,9.35
2023-04-05T19:01:47.972Z,8.10
2023-04-05T19:04:16.384Z,8.60
2023-04-05T19:06:44.764Z,9.25
2023-04-05T19:09:12.103Z,9.18
2023-04-05T19:11:39.233Z,9.48
2023-04-05T19:14:06.335Z,8.98
2023-04-05T19:16:33.494Z,10.65
2023-04-05T19:19:00.593Z,12.13
2023-04-05T19:21:27.678Z,10.98
2023-04-05T19:23:56.058Z,9.25
2023-04-05T19:26:23.129Z,10.60
2023-04-05T19:28:50.117Z,9.93
2023-04-05T19:31:17.208Z,10.32
2023-04-05T19:33:44.376Z,10.20
2023-04-05T19:36:11.384Z,10.13
2023-04-05T19:38:40.164Z,8.88
2023-04-05T19:41:07.156Z,9.15
2023-04-05T19:43:36.713Z,10.15
2023-04-05T19:46:09.164Z,9.00
2023-04-05T19:48:41.445Z,9.25
2023-04-05T19:51:09.933Z,10.40
2023-04-05T19:53:51.036Z,9.40
2023-04-05T19:56:21.909Z,9.63
2023-04-05T19:59:00.984Z,10.65
2023-04-05T20:01:35.197Z,11.73
2023-04-05T20:04:20.488Z,10.30
2023-04-05T20:06:53.317Z,10.55
2023-04-05T20:09:24.837Z,10.48
2023-04-05T20:11:58.017Z,10.15
2023-04-05T20:14:52.076Z,10.05
2023-04-05T20:17:19.429Z,10.48
2023-04-05T20:19:57.694Z,12.70
2023-04-05T20:22:26.382Z,11.25
2023-04-05T20:24:53.668Z,11.23
2023-04-05T20:27:20.930Z,12.00
2023-04-05T20:29:47.910Z,11.13
2023-04-05T20:32:17.284Z,10.60
2023-04-05T20:34:46.165Z,10.95
2023-04-05T20:37:13.726Z,11.95
2023-04-05T20:39:44.134Z,11.77
2023-04-05T20:42:14.085Z,11.18
2023-04-05T20:44:41.421Z,10.93
2023-04-05T20:47:11.593Z,11.88
2023-04-05T20:49:38.888Z,11.45
2023-04-05T20:52:08.094Z,11.95
2023-04-05T20:54:35.512Z,12.38
2023-04-05T20:57:03.167Z,12.95
2023-04-05T20:59:30.585Z,13.32
2023-04-05T21:01:57.725Z,13.73
2023-04-05T21:04:25.641Z,14.30
2023-04-05T21:06:53.571Z,12.20
2023-04-05T21:09:20.638Z,12.55
2023-04-05T21:11:47.743Z,12.48
2023-04-05T21:14:14.808Z,12.50
2023-04-05T21:16:41.737Z,12.50
2023-04-05T21:19:08.921Z,12.55
2023-04-05T21:21:36.036Z,11.57
2023-04-05T21:24:03.221Z,10.80
2023-04-05T21:26:30.104Z,10.93
2023-04-05T21:28:57.208Z,10.27
2023-04-05T21:31:24.242Z,10.73
2023-04-05T21:33:51.221Z,10.23
2023-04-05T21:36:18.232Z,10.65
2023-04-05T21:38:45.227Z,10.52
2023-04-05T21:41:12.134Z,10.90
2023-04-05T21:43:39.100Z,10.13
2023-04-05T21:46:06.155Z,9.88
2023-04-05T21:48:33.121Z,11.02
2023-04-05T21:51:00.252Z,10.32
2023-04-05T21:53:27.461Z,9.88
2023-04-05T21:55:54.498Z,10.85
2023-04-05T21:58:21.512Z,9.77
2023-04-05T22:00:48.456Z,9.77
2023-04-05T22:03:15.811Z,10.25
2023-04-05T22:05:42.774Z,10.05
2023-04-05T22:08:09.905Z,9.43
2023-04-05T22:10:38.143Z,9.95
2023-04-05T22:13:05.240Z,10.38
2023-04-05T22:15:32.306Z,9.20
2023-04-05T22:17:59.301Z,9.48
2023-04-05T22:20:26.492Z,10.32
2023-04-05T22:22:53.501Z,10.55
2023-04-05T22:25:20.590Z,11.63
2023-04-05T22:27:47.563Z,11.20
2023-04-05T22:30:14.539Z,10.57
2023-04-05T22:32:41.537Z,9.60
2023-04-05T22:35:08.925Z,9.43
2023-04-05T22:37:37.955Z,9.65
2023-04-05T22:40:05.419Z,10.35
2023-04-05T22:42:32.425Z,10.30
2023-04-05T22:44:59.378Z,9.80
2023-04-05T22:47:26.456Z,10.15
2023-04-05T22:49:53.722Z,9.68
2023-04-05T22:52:20.762Z,9.43
2023-04-05T22:54:47.784Z,9.45
2023-04-05T22:57:14.846Z,9.43
2023-04-05T22:59:41.876Z,9.80
2023-04-05T23:02:09.799Z,10.15
2023-04-05T23:04:36.779Z,10.00
2023-04-05T23:07:03.868Z,9.65
2023-04-05T23:09:30.986Z,9.43
2023-04-05T23:11:57.924Z,9.23
2023-04-05T23:14:24.876Z,9.30
2023-04-05T23:16:51.799Z,10.10
2023-04-05T23:19:18.717Z,9.27
2023-04-05T23:21:45.730Z,8.70
2023-04-05T23:24:12.685Z,9.13
2023-04-05T23:26:39.799Z,9.88
2023-04-05T23:29:06.917Z,9.68
2023-04-05T23:31:34.324Z,9.73
2023-04-05T23:34:01.280Z,9.32
2023-04-05T23:36:28.858Z,9.80
2023-04-05T23:38:56.125Z,9.80
2023-04-05T23:41:23.091Z,8.70
2023-04-05T23:43:50.565Z,8.90
2023-04-05T23:46:17.626Z,9.20
2023-04-05T23:48:44.774Z,9.65
2023-04-05T23:51:11.779Z,9.80
2023-04-05T23:53:38.734Z,9.77
2023-04-05T23:56:06.242Z,8.63
2023-04-05T23:58:33.162Z,9.25
